createdAt,value
2023-05-08T16:28:55.058Z,101627.84
2023-05-08T16:31:21.805Z,101616.69
2023-05-08T16:33:48.503Z,101617.47
2023-05-08T16:36:15.170Z,101621.81
2023-05-08T16:41:21.489Z,101613.19
2023-05-08T16:43:48.263Z,101603.69
2023-05-08T16:46:14.991Z,101609.84
2023-05-08T16:48:42.271Z,101605.69
2023-05-08T16:51:09.038Z,101597.16
2023-05-08T16:53:35.850Z,101603.97
2023-05-08T16:56:02.545Z,101602.34
2023-05-08T16:58:29.273Z,101600.59
2023-05-08T17:00:55.946Z,101601.44
2023-05-08T17:03:23.044Z,101606.50
2023-05-08T17:05:49.835Z,101607.28
2023-05-08T17:08:16.539Z,101603.78
2023-05-08T17:10:43.177Z,101598.53
2023-05-08T17:13:09.877Z,101593.28
2023-05-08T17:15:36.721Z,101596.59
2023-05-08T17:18:03.541Z,101605.09
2023-05-08T17:20:30.256Z,101595.63
2023-05-08T17:22:56.957Z,101596.34
2023-05-08T17:25:23.710Z,101590.25
2023-05-08T17:27:50.703Z,101600.44
2023-05-08T17:30:17.393Z,101605.47
2023-05-08T17:32:44.243Z,101606.28
2023-05-08T17:35:11.222Z,101606.16
2023-05-08T17:37:37.958Z,101602.59
2023-05-08T17:40:05.157Z,101602.47
2023-05-08T17:42:31.852Z,101611.78
2023-05-08T17:44:59.127Z,101606.50
2023-05-08T17:47:25.899Z,101612.44
2023-05-08T17:49:52.973Z,101610.63
2023-05-08T17:52:19.678Z,101616.56
2023-05-08T17:54:46.449Z,101618.94
2023-05-08T17:57:13.155Z,101629.22
2023-05-08T17:59:39.821Z,101625.47
2023-05-08T18:02:06.914Z,101631.31
2023-05-08T18:04:33.678Z,101621.69
2023-05-08T18:07:04.070Z,101628.34
2023-05-08T18:09:30.838Z,101624.72
2023-05-08T18:12:02.136Z,101621.78
2023-05-08T18:14:32.606Z,101627.59
2023-05-08T18:17:00.129Z,101629.22
2023-05-08T18:19:26.863Z,101629.81
2023-05-08T18:21:53.605Z,101631.31
2023-05-08T18:24:20.307Z,101631.16
2023-05-08T18:26:47.547Z,101631.00
2023-05-08T18:29:14.231Z,101635.16
2023-05-08T18:31:40.971Z,101643.56
2023-05-08T18:34:07.812Z,101646.78
2023-05-08T18:36:34.469Z,101641.44
2023-05-08T18:39:01.263Z,101650.63
2023-05-08T18:41:28.070Z,101647.75
2023-05-08T18:43:54.860Z,101659.47
2023-05-08T18:46:21.591Z,101655.69
2023-05-08T18:48:48.308Z,101652.72
2023-05-08T18:51:16.313Z,101649.81
2023-05-08T18:53:43.069Z,101646.00
2023-05-08T18:56:11.423Z,101644.88
2023-05-08T18:58:38.238Z,101647.84
2023-05-08T19:01:09.019Z,101649.13
2023-05-08T19:03:35.844Z,101649.47
2023-05-08T19:06:02.604Z,101652.47
2023-05-08T19:08:29.337Z,101651.16
2023-05-08T19:10:55.997Z,101646.53
2023-05-08T19:13:22.889Z,101655.47
2023-05-08T19:15:49.709Z,101660.25
2023-05-08T19:18:17.956Z,101661.56
2023-05-08T19:20:44.643Z,101658.56
2023-05-08T19:23:11.390Z,101664.16
2023-05-08T19:25:38.130Z,101657.72
2023-05-08T19:28:05.024Z,101667.59
2023-05-08T19:30:31.689Z,101662.16
2023-05-08T19:32:58.377Z,101662.69
2023-05-08T19:35:25.182Z,101656.31
2023-05-08T19:37:51.861Z,101653.41
2023-05-08T19:40:18.532Z,101652.19
2023-05-08T19:42:45.717Z,101661.22
2023-05-08T19:45:12.974Z,101665.00
2023-05-08T19:47:39.795Z,101662.91
2023-05-08T19:50:07.251Z,101666.88
2023-05-08T19:52:34.301Z,101663.03
2023-05-08T19:55:01.028Z,101659.25
2023-05-08T19:57:27.720Z,101664.72
2023-05-08T19:59:54.428Z,101666.94
2023-05-08T20:02:21.483Z,101659.78
2023-05-08T20:05:14.529Z,101660.31
2023-05-08T20:07:34.927Z,101660.97
2023-05-08T20:10:01.693Z,101653.81
2023-05-08T20:12:28.393Z,101657.03
2023-05-08T20:14:55.134Z,101653.28
2023-05-08T20:17:21.877Z,101658.09
2023-05-08T20:19:48.677Z,101651.72
2023-05-08T20:22:15.440Z,101652.25
2023-05-08T20:24:42.102Z,101653.69
2023-05-08T20:27:08.856Z,101645.91
2023-05-08T20:29:35.613Z,101653.31
2023-05-08T20:32:02.335Z,101648.84
2023-05-08T20:34:29.792Z,101647.66
2023-05-08T20:36:59.106Z,101653.41
2023-05-08T20:39:25.578Z,101654.84
2023-05-08T20:41:52.068Z,101646.06
2023-05-08T20:44:19.246Z,101653.66
2023-05-08T20:46:46.064Z,101643.25
2023-05-08T20:49:12.732Z,101641.38
2023-05-08T20:51:39.189Z,101637.72
2023-05-08T20:54:05.776Z,101640.03
2023-05-08T20:56:32.481Z,101639.81
2023-05-08T20:58:59.131Z,101639.50
2023-05-08T21:01:25.647Z,101637.50
2023-05-08T21:03:52.154Z,101643.09
2023-05-08T21:06:18.645Z,101633.59
2023-05-08T21:08:45.207Z,101637.50
2023-05-08T21:11:12.522Z,101641.66
2023-05-08T21:13:39.010Z,101633.59
2023-05-08T21:16:06.654Z,101638.53
2023-05-08T21:18:33.239Z,101639.16
2023-05-08T21:20:59.710Z,101637.25
2023-05-08T21:23:26.303Z,101631.09
2023-05-08T21:25:53.021Z,101627.38
2023-05-08T21:28:19.491Z,101625.44
2023-05-08T21:30:46.203Z,101627.66
2023-05-08T21:33:13.922Z,101629.97
2023-05-08T21:35:42.000Z,101627.94
2023-05-08T21:38:11.677Z,101625.09
2023-05-08T21:40:38.355Z,101626.56
2023-05-08T21:43:04.872Z,101622.88
2023-05-08T21:45:31.514Z,101626.91
2023-05-08T21:47:58.994Z,101632.47
2023-05-08T21:50:27.978Z,101631.84
2023-05-08T21:52:56.395Z,101625.28
2023-05-08T21:55:23.422Z,101624.88
2023-05-08T21:57:50.003Z,101625.38
2023-05-08T22:00:16.903Z,101617.59
2023-05-08T22:02:43.439Z,101604.41
2023-05-08T22:05:09.991Z,101610.22
2023-05-08T22:07:36.466Z,101610.81
2023-05-08T22:10:03.951Z,101608.97
2023-05-08T22:12:30.514Z,101607.25
2023-05-08T22:14:56.993Z,101600.59
2023-05-08T22:17:23.482Z,101601.81
2023-05-08T22:19:49.967Z,101605.75
2023-05-08T22:22:16.541Z,101591.69
2023-05-08T22:24:43.028Z,101591.84
2023-05-08T22:27:09.495Z,101591.84
2023-05-08T22:29:36.006Z,101584.22
2023-05-08T22:32:03.360Z,101580.81
2023-05-08T22:34:30.069Z,101581.53
2023-05-08T22:36:56.760Z,101582.22
2023-05-08T22:39:23.441Z,101581.25
2023-05-08T22:41:50.285Z,101575.56
2023-05-08T22:44:17.082Z,101574.28
2023-05-08T22:46:44.120Z,101565.59
2023-05-08T22:49:11.050Z,101572.59
2023-05-08T22:51:38.948Z,101571.72
2023-05-08T22:54:05.737Z,101562.59
2023-05-08T22:56:32.560Z,101568.81
2023-05-08T22:58:59.267Z,101559.94
2023-05-08T23:01:26.042Z,101561.94
2023-05-08T23:03:53.701Z,101570.06
2023-05-08T23:06:20.576Z,101564.44
2023-05-08T23:08:47.250Z,101556.09
2023-05-08T23:11:14.148Z,101558.88
2023-05-08T23:13:40.865Z,101554.75
2023-05-08T23:16:07.607Z,101550.53
2023-05-08T23:18:34.434Z,101548.84
2023-05-08T23:21:06.261Z,101546.28
2023-05-08T23:23:33.395Z,101547.09
2023-05-08T23:26:01.063Z,101552.00
2023-05-08T23:28:27.749Z,101550.19
2023-05-08T23:30:54.496Z,101553.44
2023-05-08T23:33:21.250Z,101548.13
2023-05-08T23:35:47.931Z,101545.41
2023-05-08T23:38:14.585Z,101548.69
2023-05-08T23:40:41.304Z,101543.34
2023-05-08T23:43:07.986Z,101545.00
2023-05-08T23:45:34.666Z,101546.56
2023-05-08T23:48:01.377Z,101545.44
2023-05-08T23:50:28.073Z,101546.31
2023-05-08T23:52:54.775Z,101547.81
2023-05-08T23:55:21.453Z,101543.97
2023-05-08T23:57:48.181Z,101538.38
